createdAt,value
2019-02-03T00:00:44.512Z,4.10
2019-02-03T00:03:14.119Z,4.00
2019-02-03T00:05:43.565Z,3.90
2019-02-03T00:08:13.107Z,4.00
2019-02-03T00:10:42.523Z,3.90
2019-02-03T00:13:12.211Z,4.00
2019-02-03T00:15:41.646Z,3.90
2019-02-03T00:18:11.290Z,3.90
2019-02-03T00:20:40.816Z,3.90
2019-02-03T00:23:10.385Z,3.80
2019-02-03T00:25:39.885Z,3.90
2019-02-03T00:28:09.361Z,3.90
2019-02-03T00:30:39.211Z,4.00
2019-02-03T00:33:08.673Z,4.10
2019-02-03T00:35:38.084Z,4.00
2019-02-03T00:38:07.760Z,4.10
2019-02-03T00:40:38.671Z,4.10
2019-02-03T00:43:08.331Z,4.10
2019-02-03T00:45:37.757Z,4.10
2019-02-03T00:48:07.275Z,4.10
2019-02-03T00:50:36.680Z,4.10
2019-02-03T00:53:06.346Z,4.00
2019-02-03T00:55:35.764Z,4.00
2019-02-03T00:58:05.629Z,4.00
2019-02-03T01:00:35.055Z,4.00
2019-02-03T01:03:04.995Z,4.00
2019-02-03T01:05:34.413Z,4.00
2019-02-03T01:08:03.961Z,4.00
2019-02-03T01:10:33.398Z,4.00
2019-02-03T01:13:02.841Z,4.00
2019-02-03T01:15:32.545Z,4.00
2019-02-03T01:18:02.122Z,4.00
2019-02-03T01:20:31.544Z,3.80
2019-02-03T01:23:01.202Z,3.80
2019-02-03T01:25:30.617Z,3.80
2019-02-03T01:28:00.241Z,3.90
2019-02-03T01:30:29.660Z,3.90
2019-02-03T01:32:59.080Z,3.90
2019-02-03T01:35:28.521Z,3.80
2019-02-03T01:37:57.938Z,3.80
2019-02-03T01:40:27.385Z,3.80
2019-02-03T01:42:56.809Z,3.60
2019-02-03T01:45:26.272Z,3.70
2019-02-03T01:47:55.703Z,3.50
2019-02-03T01:50:25.474Z,3.70
2019-02-03T01:52:54.905Z,3.80
2019-02-03T01:55:25.400Z,3.80
2019-02-03T01:57:54.840Z,3.80
2019-02-03T02:00:26.740Z,3.80
2019-02-03T02:02:56.474Z,3.80
2019-02-03T02:05:26.137Z,3.80
2019-02-03T02:07:55.573Z,3.80
2019-02-03T02:10:27.217Z,3.80
2019-02-03T02:12:56.839Z,3.80
2019-02-03T02:15:26.290Z,3.70
2019-02-03T02:17:55.791Z,3.70
2019-02-03T02:20:26.952Z,3.70
2019-02-03T02:22:57.272Z,3.70
2019-02-03T02:25:26.726Z,3.70
2019-02-03T02:27:56.153Z,3.70
2019-02-03T02:30:26.702Z,3.70
2019-02-03T02:32:56.125Z,3.70
2019-02-03T02:35:25.590Z,3.70
2019-02-03T02:38:05.842Z,3.70
2019-02-03T02:40:26.858Z,3.70
2019-02-03T02:42:56.682Z,3.70
2019-02-03T02:45:26.290Z,3.60
2019-02-03T02:47:55.745Z,3.60
2019-02-03T02:50:27.782Z,3.70
2019-02-03T02:52:57.253Z,3.60
2019-02-03T02:55:26.733Z,3.70
2019-02-03T02:57:56.219Z,3.70
2019-02-03T03:00:25.845Z,3.70
2019-02-03T03:02:55.521Z,3.60
2019-02-03T03:05:24.917Z,3.70
2019-02-03T03:07:54.367Z,3.70
2019-02-03T03:10:24.184Z,3.60
2019-02-03T03:12:53.633Z,3.60
2019-02-03T03:15:23.098Z,3.60
2019-02-03T03:17:52.549Z,3.40
2019-02-03T03:20:22.228Z,3.30
2019-02-03T03:22:51.972Z,3.30
2019-02-03T03:25:22.037Z,3.30
2019-02-03T03:27:51.509Z,3.20
2019-02-03T03:30:25.914Z,3.20
2019-02-03T03:32:55.493Z,3.10
2019-02-03T03:35:25.630Z,3.10
2019-02-03T03:37:55.268Z,3.10
2019-02-03T03:40:26.895Z,3.30
2019-02-03T03:42:56.560Z,3.10
2019-02-03T03:45:26.420Z,3.10
2019-02-03T03:47:56.069Z,2.80
2019-02-03T03:50:25.494Z,3.20
2019-02-03T03:52:54.969Z,3.10
2019-02-03T03:55:24.389Z,2.90
2019-02-03T03:57:53.871Z,2.90
2019-02-03T04:00:25.000Z,3.00
2019-02-03T04:02:54.659Z,3.00
2019-02-03T04:05:24.182Z,2.90
2019-02-03T04:07:53.637Z,2.90
2019-02-03T04:10:24.243Z,3.10
2019-02-03T04:12:53.798Z,3.10
2019-02-03T04:15:23.529Z,2.90
2019-02-03T04:17:52.971Z,2.90
2019-02-03T04:20:27.587Z,2.60
2019-02-03T04:22:57.029Z,2.50
2019-02-03T04:25:26.810Z,2.60
2019-02-03T04:27:56.656Z,3.00
2019-02-03T04:30:26.765Z,3.10
2019-02-03T04:32:56.191Z,3.10
2019-02-03T04:35:25.614Z,3.00
2019-02-03T04:37:55.079Z,3.00
2019-02-03T04:40:25.114Z,2.70
2019-02-03T04:42:54.572Z,2.80
2019-02-03T04:45:24.108Z,2.80
2019-02-03T04:47:53.624Z,2.70
2019-02-03T04:50:23.405Z,2.60
2019-02-03T04:52:52.825Z,2.70
2019-02-03T04:55:22.908Z,2.60
2019-02-03T04:57:52.378Z,2.60
2019-02-03T05:00:25.281Z,2.80
2019-02-03T05:02:54.715Z,2.90
2019-02-03T05:05:24.207Z,2.80
2019-02-03T05:07:54.027Z,2.90
2019-02-03T05:10:23.583Z,2.90
2019-02-03T05:12:53.065Z,2.80
2019-02-03T05:15:24.264Z,2.90
2019-02-03T05:17:54.000Z,2.90
2019-02-03T05:20:25.890Z,3.00
2019-02-03T05:22:55.628Z,3.10
2019-02-03T05:25:25.094Z,3.20
2019-02-03T05:27:54.496Z,3.10
2019-02-03T05:30:29.229Z,3.10
2019-02-03T05:32:58.671Z,3.10
2019-02-03T05:35:28.113Z,3.10
2019-02-03T05:37:57.541Z,3.10
2019-02-03T05:40:26.993Z,3.00
2019-02-03T05:42:56.427Z,3.10
2019-02-03T05:45:25.881Z,2.80
2019-02-03T05:47:55.511Z,3.00
2019-02-03T05:50:25.065Z,3.10
2019-02-03T05:52:54.579Z,3.10
2019-02-03T05:55:24.043Z,2.90
2019-02-03T05:57:53.528Z,3.00
2019-02-03T06:00:30.641Z,3.00
2019-02-03T06:03:00.056Z,3.00
2019-02-03T06:05:29.495Z,3.00
2019-02-03T06:07:59.261Z,2.90
2019-02-03T06:10:28.966Z,3.00
2019-02-03T06:12:58.788Z,3.00
2019-02-03T06:15:28.293Z,3.00
2019-02-03T06:17:57.806Z,2.90
2019-02-03T06:20:27.356Z,2.80
2019-02-03T06:22:56.790Z,2.90
2019-02-03T06:25:26.241Z,2.90
2019-02-03T06:27:55.766Z,2.90
2019-02-03T06:31:18.873Z,2.80
2019-02-03T06:33:52.851Z,2.90
2019-02-03T06:36:23.232Z,2.80
2019-02-03T06:38:53.838Z,2.70
2019-02-03T06:41:23.290Z,2.80
2019-02-03T06:43:52.721Z,2.70
2019-02-03T06:46:43.884Z,2.70
2019-02-03T06:49:34.847Z,2.70
2019-02-03T06:52:04.797Z,2.70
2019-02-03T06:54:34.214Z,2.50
2019-02-03T06:57:03.821Z,2.70
2019-02-03T06:59:33.251Z,2.60
2019-02-03T07:02:03.222Z,2.70
2019-02-03T07:04:32.652Z,2.50
2019-02-03T07:07:02.106Z,2.50
2019-02-03T07:09:31.581Z,2.70
2019-02-03T07:12:01.036Z,2.60
2019-02-03T07:14:30.471Z,2.60
2019-02-03T07:16:59.930Z,2.00
2019-02-03T07:19:29.373Z,2.40
2019-02-03T07:21:58.821Z,2.50
2019-02-03T07:24:28.250Z,2.50
2019-02-03T07:26:57.690Z,2.60
2019-02-03T07:29:27.533Z,2.50
2019-02-03T07:31:56.988Z,2.60
2019-02-03T07:34:26.402Z,2.60
2019-02-03T07:36:55.853Z,2.60
2019-02-03T07:39:25.319Z,2.50
2019-02-03T07:41:54.865Z,2.40
2019-02-03T07:44:24.296Z,2.50
2019-02-03T07:46:53.743Z,2.50
2019-02-03T07:49:24.402Z,2.50
2019-02-03T07:51:53.849Z,2.50
2019-02-03T07:54:23.279Z,2.30
2019-02-03T07:56:53.129Z,2.50
2019-02-03T07:59:22.552Z,2.50
2019-02-03T08:01:52.004Z,2.50
2019-02-03T08:04:21.426Z,2.50
2019-02-03T08:06:50.876Z,2.40
2019-02-03T08:09:20.346Z,2.50
2019-02-03T08:11:49.990Z,2.40
2019-02-03T08:14:19.532Z,2.50
2019-02-03T08:16:48.972Z,2.40
2019-02-03T08:19:18.373Z,2.20
2019-02-03T08:21:47.798Z,2.10
2019-02-03T08:24:17.274Z,2.20
2019-02-03T08:26:46.684Z,2.20
2019-02-03T08:29:16.142Z,2.20
2019-02-03T08:31:45.694Z,2.20
2019-02-03T08:34:15.249Z,2.40
2019-02-03T08:36:44.665Z,2.50
2019-02-03T08:39:14.521Z,2.30
2019-02-03T08:41:43.928Z,2.30
2019-02-03T08:44:13.372Z,2.40
2019-02-03T08:46:42.792Z,2.30
2019-02-03T08:49:12.245Z,1.90
2019-02-03T08:51:41.778Z,1.80
2019-02-03T08:54:11.229Z,2.20
2019-02-03T08:56:40.652Z,2.30
2019-02-03T08:59:10.146Z,2.30
2019-02-03T09:01:39.566Z,2.20
2019-02-03T09:04:09.021Z,2.40
2019-02-03T09:06:38.838Z,2.10
2019-02-03T09:09:10.741Z,1.80
2019-02-03T09:11:40.161Z,2.00
2019-02-03T09:14:09.603Z,1.90
2019-02-03T09:16:39.025Z,2.30
2019-02-03T09:19:08.463Z,2.10
2019-02-03T09:21:37.924Z,2.30
2019-02-03T09:24:07.438Z,2.30
2019-02-03T09:26:37.163Z,2.30
2019-02-03T09:29:06.993Z,2.40
2019-02-03T09:31:36.524Z,2.50
2019-02-03T09:34:06.488Z,2.20
2019-02-03T09:36:35.932Z,2.20
2019-02-03T09:39:11.823Z,2.00
2019-02-03T09:41:41.266Z,2.00
2019-02-03T09:44:11.029Z,2.00
2019-02-03T09:46:42.072Z,2.00
2019-02-03T09:49:11.761Z,2.30
2019-02-03T09:51:41.226Z,2.30
2019-02-03T09:54:10.906Z,2.30
2019-02-03T09:56:40.553Z,2.40
2019-02-03T09:59:10.026Z,2.50
2019-02-03T10:01:39.673Z,2.40
2019-02-03T10:04:09.705Z,1.90
2019-02-03T10:06:39.137Z,1.90
2019-02-03T10:09:09.752Z,1.90
2019-02-03T10:11:39.718Z,1.60
2019-02-03T10:14:09.933Z,1.80
2019-02-03T10:16:39.574Z,1.90
2019-02-03T10:19:09.092Z,1.70
2019-02-03T10:21:38.722Z,2.10
2019-02-03T10:24:08.287Z,2.30
2019-02-03T10:26:38.150Z,2.20
2019-02-03T10:29:09.461Z,2.40
2019-02-03T10:31:38.987Z,2.20
2019-02-03T10:34:08.819Z,2.40
2019-02-03T10:36:38.380Z,2.60
2019-02-03T10:39:10.380Z,2.50
2019-02-03T10:41:40.355Z,2.60
2019-02-03T10:44:10.084Z,2.60
2019-02-03T10:46:39.683Z,2.60
2019-02-03T10:49:09.708Z,2.50
2019-02-03T10:51:39.156Z,2.30
2019-02-03T10:54:09.081Z,2.30
2019-02-03T10:56:38.534Z,2.30
2019-02-03T10:59:08.005Z,2.40
2019-02-03T11:01:37.469Z,2.50
2019-02-03T11:04:06.986Z,2.40
2019-02-03T11:06:36.439Z,2.50
2019-02-03T11:09:10.058Z,2.30
2019-02-03T11:11:39.770Z,2.20
2019-02-03T11:14:09.166Z,2.40
2019-02-03T11:16:38.597Z,2.40
2019-02-03T11:19:08.010Z,2.50
2019-02-03T11:21:37.965Z,2.40
2019-02-03T11:24:07.513Z,2.50
2019-02-03T11:26:37.044Z,2.50
2019-02-03T11:29:06.471Z,2.60
2019-02-03T11:31:36.016Z,2.40
2019-02-03T11:34:05.846Z,2.30
2019-02-03T11:36:35.289Z,2.30
2019-02-03T11:39:07.896Z,2.20
2019-02-03T11:41:48.298Z,2.40
2019-02-03T11:44:08.627Z,2.50
2019-02-03T11:46:38.068Z,2.20
2019-02-03T11:49:07.481Z,2.50
2019-02-03T11:51:36.950Z,2.30
2019-02-03T11:54:06.969Z,2.30
2019-02-03T11:56:36.760Z,2.30
2019-02-03T11:59:06.409Z,2.20
2019-02-03T12:01:35.862Z,2.20
2019-02-03T12:04:05.578Z,2.10
2019-02-03T12:06:35.017Z,2.40
2019-02-03T12:09:07.388Z,2.50
2019-02-03T12:11:36.918Z,2.10
2019-02-03T12:14:06.442Z,2.30
2019-02-03T12:16:57.597Z,2.10
2019-02-03T12:20:26.706Z,2.20
2019-02-03T12:22:56.770Z,2.30
2019-02-03T12:25:28.404Z,2.20
2019-02-03T12:27:57.854Z,1.80
2019-02-03T12:30:29.857Z,2.10
2019-02-03T12:32:59.797Z,2.00
2019-02-03T12:35:29.375Z,1.60
2019-02-03T12:37:59.223Z,2.10
2019-02-03T12:40:33.017Z,1.80
2019-02-03T12:43:02.657Z,1.80
2019-02-03T12:45:32.285Z,2.10
2019-02-03T12:48:01.742Z,2.00
2019-02-03T12:50:31.642Z,2.00
2019-02-03T12:53:01.172Z,2.10
2019-02-03T12:55:31.428Z,2.30
2019-02-03T12:58:00.929Z,2.30
2019-02-03T13:00:32.129Z,2.50
2019-02-03T13:03:01.963Z,2.50
2019-02-03T13:05:31.578Z,2.50
2019-02-03T13:08:02.041Z,2.50
2019-02-03T13:10:33.736Z,2.40
2019-02-03T13:13:03.217Z,2.50
2019-02-03T13:15:44.909Z,2.20
2019-02-03T13:18:14.919Z,2.10
2019-02-03T13:20:45.063Z,2.50
2019-02-03T13:23:14.967Z,2.60
2019-02-03T13:25:44.923Z,2.40
2019-02-03T13:28:14.440Z,2.50
2019-02-03T13:30:49.129Z,2.60
2019-02-03T13:33:21.860Z,2.20
2019-02-03T13:35:50.874Z,2.50
2019-02-03T13:38:20.961Z,2.40
2019-02-03T13:40:50.706Z,2.10
2019-02-03T13:43:20.643Z,2.30
2019-02-03T13:45:50.202Z,2.50
2019-02-03T13:48:20.125Z,2.10
2019-02-03T13:50:49.703Z,1.90
2019-02-03T13:53:19.361Z,2.20
2019-02-03T13:55:49.041Z,2.20
2019-02-03T13:58:19.598Z,2.10
2019-02-03T14:00:49.033Z,2.20
2019-02-03T14:03:18.505Z,1.90
2019-02-03T14:05:48.471Z,1.70
2019-02-03T14:08:18.250Z,2.10
2019-02-03T14:10:48.698Z,2.10
2019-02-03T14:13:18.423Z,1.80
2019-02-03T14:15:48.135Z,2.20
2019-02-03T14:18:17.572Z,2.10
2019-02-03T14:20:47.121Z,2.30
2019-02-03T14:23:17.030Z,2.30
2019-02-03T14:25:46.595Z,2.30
2019-02-03T14:28:16.137Z,2.00
2019-02-03T14:30:46.373Z,2.10
2019-02-03T14:33:16.245Z,2.20
2019-02-03T14:35:46.186Z,2.10
2019-02-03T14:38:15.641Z,2.10
2019-02-03T14:40:45.069Z,2.20
2019-02-03T14:43:14.512Z,1.90
2019-02-03T14:45:43.937Z,2.10
2019-02-03T14:48:13.362Z,1.90
2019-02-03T14:50:42.809Z,2.10
2019-02-03T14:53:14.671Z,1.90
2019-02-03T14:55:45.769Z,2.00
2019-02-03T14:58:15.410Z,2.10
2019-02-03T15:00:47.033Z,1.90
2019-02-03T15:03:24.759Z,2.00
2019-02-03T15:05:54.213Z,2.00
2019-02-03T15:08:23.796Z,1.70
2019-02-03T15:10:53.233Z,2.00
2019-02-03T15:13:22.740Z,1.80
2019-02-03T15:15:52.406Z,2.00
2019-02-03T15:18:22.081Z,2.00
2019-02-03T15:20:51.760Z,1.80
2019-02-03T15:23:22.449Z,2.00
2019-02-03T15:25:51.958Z,2.10
2019-02-03T15:28:21.382Z,2.00
2019-02-03T15:30:51.226Z,1.90
2019-02-03T15:33:21.336Z,2.00
2019-02-03T15:35:51.404Z,2.00
2019-02-03T15:38:21.132Z,1.90
2019-02-03T15:40:50.865Z,1.90
2019-02-03T15:43:25.603Z,1.90
2019-02-03T15:45:51.973Z,1.70
2019-02-03T15:48:21.705Z,1.70
2019-02-03T15:50:51.349Z,1.60
2019-02-03T15:53:21.324Z,1.50
2019-02-03T15:55:51.204Z,1.80
2019-02-03T15:58:21.464Z,1.80
2019-02-03T16:00:53.350Z,1.60
2019-02-03T16:03:23.370Z,1.60
2019-02-03T16:05:53.382Z,1.80
2019-02-03T16:08:23.137Z,1.80
2019-02-03T16:10:53.994Z,1.70
2019-02-03T16:13:23.512Z,1.70
2019-02-03T16:15:53.290Z,1.70
2019-02-03T16:18:23.555Z,1.90
2019-02-03T16:20:53.552Z,1.70
2019-02-03T16:23:23.217Z,1.70
2019-02-03T16:25:53.536Z,1.80
2019-02-03T16:28:23.203Z,1.90
2019-02-03T16:30:53.064Z,1.90
2019-02-03T16:33:22.553Z,1.90
2019-02-03T16:35:51.970Z,1.70
2019-02-03T16:38:23.290Z,1.70
2019-02-03T16:40:52.556Z,1.20
2019-02-03T16:43:22.019Z,1.10
2019-02-03T16:45:51.487Z,0.50
2019-02-03T16:48:20.902Z,1.20
2019-02-03T16:50:50.414Z,1.50
2019-02-03T16:53:19.932Z,1.40
2019-02-03T16:55:49.382Z,1.10
2019-02-03T16:58:18.869Z,1.40
2019-02-03T17:00:48.706Z,1.20
2019-02-03T17:03:18.166Z,1.50
2019-02-03T17:05:47.613Z,1.30
2019-02-03T17:08:17.129Z,1.00
2019-02-03T17:10:46.514Z,1.20
2019-02-03T17:13:16.046Z,1.60
2019-02-03T17:15:52.348Z,1.70
2019-02-03T17:18:21.842Z,1.70
2019-02-03T17:21:01.544Z,1.70
2019-02-03T17:23:22.386Z,1.70
2019-02-03T17:25:57.981Z,1.70
2019-02-03T17:28:27.429Z,1.70
2019-02-03T17:30:56.851Z,1.60
2019-02-03T17:33:26.319Z,1.50
2019-02-03T17:35:55.908Z,1.40
2019-02-03T17:38:25.368Z,2.30
2019-02-03T17:40:54.847Z,2.00
2019-02-03T17:43:24.309Z,2.50
2019-02-03T17:45:53.745Z,3.20
2019-02-03T17:48:23.398Z,3.60
2019-02-03T17:50:52.820Z,3.20
2019-02-03T17:53:22.351Z,3.80
2019-02-03T17:55:51.913Z,4.00
2019-02-03T17:58:21.412Z,4.10
2019-02-03T18:01:03.489Z,4.10
2019-02-03T18:03:32.993Z,4.40
2019-02-03T18:06:03.892Z,4.40
2019-02-03T18:08:33.341Z,4.60
2019-02-03T18:11:02.870Z,4.60
2019-02-03T18:13:32.338Z,4.10
2019-02-03T18:16:01.763Z,4.40
2019-02-03T18:18:31.232Z,4.60
2019-02-03T18:21:00.678Z,4.70
2019-02-03T18:23:30.317Z,4.90
2019-02-03T18:25:59.739Z,4.80
2019-02-03T18:28:29.210Z,5.00
2019-02-03T18:30:58.662Z,5.00
2019-02-03T18:33:29.424Z,5.00
2019-02-03T18:35:58.865Z,5.10
2019-02-03T18:38:28.333Z,5.30
2019-02-03T18:40:57.756Z,5.10
2019-02-03T18:43:27.214Z,5.30
2019-02-03T18:45:56.686Z,5.20
2019-02-03T18:48:26.385Z,5.10
2019-02-03T18:50:55.853Z,5.10
2019-02-03T18:53:25.317Z,5.10
2019-02-03T18:55:54.771Z,5.00
2019-02-03T18:58:24.225Z,5.20
2019-02-03T19:00:53.890Z,5.30
2019-02-03T19:03:23.320Z,5.20
2019-02-03T19:05:53.377Z,5.20
2019-02-03T19:08:22.822Z,5.10
2019-02-03T19:10:52.554Z,5.10
2019-02-03T19:13:21.985Z,5.00
2019-02-03T19:15:52.828Z,5.10
2019-02-03T19:18:22.624Z,5.20
2019-02-03T19:20:52.255Z,5.10
2019-02-03T19:23:21.927Z,4.90
2019-02-03T19:25:51.497Z,5.20
2019-02-03T19:28:21.001Z,5.10
2019-02-03T19:30:50.473Z,5.00
2019-02-03T19:33:19.940Z,5.10
2019-02-03T19:35:49.507Z,5.10
2019-02-03T19:38:19.063Z,5.20
2019-02-03T19:40:48.843Z,5.00
2019-02-03T19:43:18.365Z,4.90
2019-02-03T19:45:48.012Z,5.00
2019-02-03T19:48:17.629Z,5.10
2019-02-03T19:50:47.296Z,5.10
2019-02-03T19:53:16.845Z,5.00
2019-02-03T19:55:46.565Z,5.00
2019-02-03T19:58:16.674Z,4.90
2019-02-03T20:00:46.424Z,5.10
2019-02-03T20:03:15.997Z,5.10
2019-02-03T20:05:45.572Z,5.00
2019-02-03T20:08:15.040Z,4.80
2019-02-03T20:10:44.570Z,4.90
2019-02-03T20:13:16.007Z,4.90
2019-02-03T20:15:45.513Z,4.80
2019-02-03T20:18:15.266Z,4.70
2019-02-03T20:20:44.740Z,4.80
2019-02-03T20:23:14.381Z,4.70
2019-02-03T20:25:43.865Z,4.70
2019-02-03T20:28:13.428Z,4.80
2019-02-03T20:30:43.033Z,4.80
2019-02-03T20:33:12.703Z,4.60
2019-02-03T20:35:42.284Z,4.60
2019-02-03T20:38:12.132Z,4.60
2019-02-03T20:40:43.201Z,4.60
2019-02-03T20:43:12.949Z,4.60
2019-02-03T20:45:49.417Z,4.50
2019-02-03T20:48:13.855Z,4.60
2019-02-03T20:50:43.762Z,4.60
2019-02-03T20:53:13.328Z,4.70
2019-02-03T20:55:43.111Z,4.60
2019-02-03T20:58:12.735Z,4.60
2019-02-03T21:00:42.195Z,4.40
2019-02-03T21:03:11.715Z,4.40
2019-02-03T21:05:41.179Z,4.60
2019-02-03T21:08:10.849Z,4.60
2019-02-03T21:10:40.327Z,4.50
2019-02-03T21:13:11.453Z,4.60
2019-02-03T21:15:41.228Z,4.50
2019-02-03T21:18:11.094Z,4.20
2019-02-03T21:20:40.532Z,4.10
2019-02-03T21:23:10.105Z,4.30
2019-02-03T21:25:39.523Z,4.30
2019-02-03T21:28:09.317Z,4.30
2019-02-03T21:30:39.488Z,3.80
2019-02-03T21:33:09.228Z,4.00
2019-02-03T21:35:39.071Z,4.20
2019-02-03T21:38:09.666Z,3.90
2019-02-03T21:40:39.321Z,4.00
2019-02-03T21:43:09.113Z,4.10
2019-02-03T21:45:45.045Z,4.00
2019-02-03T21:48:10.569Z,3.90
2019-02-03T21:50:39.999Z,4.00
2019-02-03T21:53:09.559Z,4.00
2019-02-03T21:55:39.080Z,4.00
2019-02-03T21:58:09.063Z,3.70
2019-02-03T22:00:38.486Z,3.70
2019-02-03T22:03:07.952Z,3.90
2019-02-03T22:05:37.390Z,3.80
2019-02-03T22:08:06.984Z,3.80
2019-02-03T22:10:38.505Z,3.80
2019-02-03T22:13:08.090Z,3.80
2019-02-03T22:15:37.704Z,3.70
2019-02-03T22:18:07.258Z,3.80
2019-02-03T22:20:36.690Z,3.60
2019-02-03T22:23:06.517Z,3.70
2019-02-03T22:25:36.231Z,3.90
2019-02-03T22:28:05.820Z,3.80
2019-02-03T22:30:37.736Z,3.80
2019-02-03T22:33:08.086Z,3.80
2019-02-03T22:35:37.962Z,3.80
2019-02-03T22:38:08.937Z,3.80
2019-02-03T22:40:38.416Z,3.80
2019-02-03T22:43:07.911Z,3.80
2019-02-03T22:45:37.395Z,3.80
2019-02-03T22:48:08.004Z,3.70
2019-02-03T22:50:37.524Z,3.70
2019-02-03T22:53:07.000Z,3.80
2019-02-03T22:55:36.661Z,3.70
2019-02-03T22:58:06.218Z,3.70
2019-02-03T23:01:13.259Z,3.70
2019-02-03T23:03:53.651Z,3.80
2019-02-03T23:06:24.986Z,3.70
2019-02-03T23:08:55.441Z,3.70
2019-02-03T23:11:25.083Z,3.70
2019-02-03T23:13:54.554Z,3.60
2019-02-03T23:16:23.979Z,3.60
2019-02-03T23:18:53.561Z,3.60
2019-02-03T23:21:23.302Z,3.60
2019-02-03T23:23:52.954Z,3.60
2019-02-03T23:26:22.426Z,3.50
2019-02-03T23:28:51.875Z,3.60
2019-02-03T23:31:21.314Z,3.60
2019-02-03T23:33:50.743Z,3.60
2019-02-03T23:36:20.186Z,3.60
2019-02-03T23:38:49.612Z,3.60
2019-02-03T23:41:19.172Z,3.60
2019-02-03T23:43:50.089Z,3.60
2019-02-03T23:46:29.322Z,3.60
2019-02-03T23:48:50.604Z,3.60
2019-02-03T23:51:20.460Z,3.50
2019-02-03T23:53:49.885Z,3.50
2019-02-03T23:56:19.338Z,3.50
2019-02-03T23:58:48.799Z,3.50
